Time;durP1;ratioP1;P1;durP2;ratioP2;P2;SDS_P1;SDS_P2;PMS_P1;PMS_P2;Temp;Humidity;BMP_temperature;BMP_pressure;BME280_temperature;BME280_humidity;BME280_pressure;Samples;Min_cycle;Max_cycle;Signal;HPM_P1;HPM_P2
2023/12/27 00:01:52;;;;;;;2.72;1.77;;;;;;;;;;5058721;28;42657;-69
2023/12/27 00:04:20;;;;;;;3.13;1.75;;;;;;;;;;5058873;28;41806;-71
2023/12/27 00:06:48;;;;;;;3.70;1.80;;;;;;;;;;5065151;28;41697;-68
2023/12/27 00:09:16;;;;;;;3.40;2.00;;;;;;;;;;5063526;28;43164;-69
2023/12/27 00:11:46;;;;;;;4.30;1.77;;;;;;;;;;5051592;28;41129;-70
2023/12/27 00:14:14;;;;;;;4.22;2.15;;;;;;;;;;5064548;28;41489;-68
2023/12/27 00:16:42;;;;;;;3.83;1.58;;;;;;;;;;5055106;28;41963;-67
2023/12/27 00:19:11;;;;;;;2.40;1.70;;;;;;;;;;5068026;28;42031;-69
2023/12/27 00:21:39;;;;;;;1.95;1.50;;;;;;;;;;5072231;28;41739;-70
2023/12/27 00:24:07;;;;;;;7.10;2.60;;;;;;;;;;5064578;28;42768;-70
2023/12/27 00:26:35;;;;;;;2.80;1.80;;;;;;;;;;5063469;28;43174;-68
2023/12/27 00:29:03;;;;;;;4.00;2.25;;;;;;;;;;5068263;28;41975;-70
2023/12/27 00:31:31;;;;;;;2.95;1.75;;;;;;;;;;5041036;28;39714;-70
2023/12/27 00:33:59;;;;;;;4.50;1.67;;;;;;;;;;5043826;28;40407;-70
2023/12/27 00:36:29;;;;;;;3.50;1.70;;;;;;;;;;5050251;28;41194;-71
2023/12/27 00:39:01;;;;;;;4.75;2.10;;;;;;;;;;5062006;28;42880;-70
2023/12/27 00:41:29;;;;;;;2.63;1.58;;;;;;;;;;5068523;28;41329;-70
2023/12/27 00:43:57;;;;;;;4.45;1.60;;;;;;;;;;5068546;28;41650;-70
2023/12/27 00:46:25;;;;;;;2.90;1.77;;;;;;;;;;5069157;28;41182;-71
2023/12/27 00:48:53;;;;;;;2.00;1.30;;;;;;;;;;5056782;28;41807;-70
2023/12/27 00:51:22;;;;;;;2.95;1.50;;;;;;;;;;5067970;28;42139;-71
2023/12/27 00:53:53;;;;;;;3.05;1.48;;;;;;;;;;5043614;28;41110;-70
2023/12/27 00:56:22;;;;;;;3.05;1.50;;;;;;;;;;5037338;28;40607;-70
2023/12/27 00:58:50;;;;;;;3.40;1.33;;;;;;;;;;5066426;28;42253;-70
2023/12/27 01:01:18;;;;;;;2.88;1.80;;;;;;;;;;5063552;28;41504;-71
2023/12/27 01:03:46;;;;;;;4.22;1.63;;;;;;;;;;5057434;28;41776;-70
2023/12/27 01:06:14;;;;;;;2.50;1.33;;;;;;;;;;5066307;28;42830;-71
2023/12/27 01:08:42;;;;;;;2.85;1.40;;;;;;;;;;5060425;28;41420;-71
2023/12/27 01:11:12;;;;;;;2.50;1.52;;;;;;;;;;5066719;28;43548;-70
2023/12/27 01:13:40;;;;;;;2.95;1.60;;;;;;;;;;5059502;28;41796;-70
2023/12/27 01:16:07;;;;;;;1.80;1.35;;;;;;;;;;5067056;28;41721;-70
2023/12/27 01:18:35;;;;;;;3.35;1.40;;;;;;;;;;5060297;28;41167;-70
2023/12/27 01:21:04;;;;;;;2.88;1.50;;;;;;;;;;5060768;28;41339;-70
2023/12/27 01:23:35;;;;;;;3.67;1.33;;;;;;;;;;5042527;28;40630;-71
2023/12/27 01:26:03;;;;;;;2.55;1.83;;;;;;;;;;5058945;28;41397;-70
2023/12/27 01:28:33;;;;;;;2.03;1.33;;;;;;;;;;5038039;28;40543;-70
2023/12/27 01:31:02;;;;;;;2.28;1.50;;;;;;;;;;5065074;28;42629;-70
2023/12/27 01:33:30;;;;;;;3.15;1.63;;;;;;;;;;5064175;28;41523;-70
2023/12/27 01:35:58;;;;;;;5.13;1.30;;;;;;;;;;5037943;28;41939;-70
2023/12/27 01:38:27;;;;;;;2.22;1.52;;;;;;;;;;5067511;28;42291;-70
2023/12/27 01:40:54;;;;;;;3.00;1.35;;;;;;;;;;5067063;28;41087;-70
2023/12/27 01:43:22;;;;;;;2.70;1.58;;;;;;;;;;5067890;28;42095;-70
2023/12/27 01:45:52;;;;;;;2.72;1.33;;;;;;;;;;5067150;28;42337;-71
2023/12/27 01:48:20;;;;;;;1.65;1.40;;;;;;;;;;5049313;28;39861;-70
2023/12/27 01:50:49;;;;;;;2.40;1.40;;;;;;;;;;5036776;28;40966;-70
2023/12/27 01:53:17;;;;;;;2.15;1.60;;;;;;;;;;5067506;28;42245;-69
2023/12/27 01:55:45;;;;;;;2.33;1.35;;;;;;;;;;5056843;28;42910;-70
2023/12/27 01:58:13;;;;;;;2.80;1.45;;;;;;;;;;5048163;28;39930;-70
2023/12/27 02:00:41;;;;;;;2.13;1.50;;;;;;;;;;5050506;28;40996;-70
2023/12/27 02:03:11;;;;;;;3.45;1.38;;;;;;;;;;5068019;28;42083;-70
2023/12/27 02:05:39;;;;;;;1.30;1.13;;;;;;;;;;5066854;28;42262;-71
2023/12/27 02:08:07;;;;;;;2.35;1.33;;;;;;;;;;5080431;28;42197;-70
2023/12/27 02:10:35;;;;;;;2.10;1.42;;;;;;;;;;5050523;28;40739;-70
2023/12/27 02:13:04;;;;;;;2.10;1.23;;;;;;;;;;5067212;28;41447;-71
2023/12/27 02:15:32;;;;;;;1.92;1.27;;;;;;;;;;5048336;28;40490;-70
2023/12/27 02:18:00;;;;;;;2.15;1.40;;;;;;;;;;5066737;28;40014;-70
2023/12/27 02:20:30;;;;;;;1.85;1.30;;;;;;;;;;5067357;28;41773;-70
2023/12/27 02:22:58;;;;;;;2.05;1.42;;;;;;;;;;5066025;28;42135;-70
2023/12/27 02:25:27;;;;;;;2.10;1.45;;;;;;;;;;5063929;28;41171;-71
2023/12/27 02:27:55;;;;;;;2.33;1.20;;;;;;;;;;5066709;28;41029;-70
2023/12/27 02:30:24;;;;;;;1.63;1.27;;;;;;;;;;5060146;28;41311;-70
2023/12/27 02:32:52;;;;;;;1.33;1.05;;;;;;;;;;5067093;28;42078;-71
2023/12/27 02:35:20;;;;;;;2.58;1.67;;;;;;;;;;5039414;28;41503;-70
2023/12/27 02:37:48;;;;;;;1.92;1.30;;;;;;;;;;5061366;28;41218;-70
2023/12/27 02:40:16;;;;;;;2.05;1.45;;;;;;;;;;5074752;28;41623;-70
2023/12/27 02:42:46;;;;;;;2.42;1.52;;;;;;;;;;5053629;28;40478;-70
2023/12/27 02:45:14;;;;;;;1.27;1.17;;;;;;;;;;5066919;28;41851;-70
2023/12/27 02:47:42;;;;;;;3.17;1.60;;;;;;;;;;5049026;28;41448;-70
2023/12/27 02:50:11;;;;;;;2.15;1.30;;;;;;;;;;5060810;28;41183;-70
2023/12/27 02:52:39;;;;;;;1.65;1.23;;;;;;;;;;5066703;28;41450;-70
2023/12/27 02:55:07;;;;;;;2.38;1.23;;;;;;;;;;5048568;28;41553;-71
2023/12/27 02:57:35;;;;;;;2.85;1.40;;;;;;;;;;5066550;28;42588;-70
2023/12/27 03:00:06;;;;;;;2.03;1.40;;;;;;;;;;5066315;28;42317;-70
2023/12/27 03:02:35;;;;;;;2.33;1.70;;;;;;;;;;5057462;28;41817;-70
2023/12/27 03:05:03;;;;;;;1.65;1.33;;;;;;;;;;5070281;28;41339;-71
2023/12/27 03:07:31;;;;;;;2.70;1.30;;;;;;;;;;5066782;28;42737;-71
2023/12/27 03:09:59;;;;;;;4.55;1.55;;;;;;;;;;5066262;28;41985;-70
2023/12/27 03:12:27;;;;;;;2.38;1.52;;;;;;;;;;5058743;28;40923;-70
2023/12/27 03:14:55;;;;;;;2.13;1.38;;;;;;;;;;5065746;28;41376;-70
2023/12/27 03:17:25;;;;;;;2.30;1.48;;;;;;;;;;5064294;28;42192;-70
2023/12/27 03:19:53;;;;;;;2.25;1.17;;;;;;;;;;5054409;28;40556;-70
2023/12/27 03:22:21;;;;;;;2.42;1.30;;;;;;;;;;5066583;28;42208;-70
2023/12/27 03:24:49;;;;;;;1.95;1.20;;;;;;;;;;5047813;28;39711;-70
2023/12/27 03:27:17;;;;;;;2.00;1.13;;;;;;;;;;5067014;28;41926;-71
2023/12/27 03:29:45;;;;;;;2.03;1.30;;;;;;;;;;5068016;28;41063;-70
2023/12/27 03:32:13;;;;;;;2.88;1.35;;;;;;;;;;5085689;28;41097;-70
2023/12/27 03:34:42;;;;;;;2.28;1.45;;;;;;;;;;5052769;28;42331;-70
2023/12/27 03:37:10;;;;;;;1.73;1.15;;;;;;;;;;5066748;28;43115;-70
2023/12/27 03:39:38;;;;;;;2.60;1.45;;;;;;;;;;5041996;28;39958;-70
2023/12/27 03:42:06;;;;;;;2.28;1.50;;;;;;;;;;5065089;28;40018;-70
2023/12/27 03:44:34;;;;;;;4.45;1.27;;;;;;;;;;5051867;28;42273;-70
2023/12/27 03:47:02;;;;;;;2.35;1.33;;;;;;;;;;5075158;28;41391;-70
2023/12/27 03:49:30;;;;;;;2.33;1.45;;;;;;;;;;5052227;28;42034;-70
2023/12/27 03:51:59;;;;;;;1.60;1.30;;;;;;;;;;5069198;28;41311;-70
2023/12/27 03:54:28;;;;;;;2.38;1.50;;;;;;;;;;5068645;28;41771;-70
2023/12/27 03:56:55;;;;;;;2.88;1.40;;;;;;;;;;5069095;28;42307;-71
2023/12/27 03:59:23;;;;;;;2.83;1.42;;;;;;;;;;5068403;28;41973;-70
2023/12/27 04:01:51;;;;;;;3.25;1.70;;;;;;;;;;5050848;28;40754;-70
2023/12/27 04:04:19;;;;;;;2.17;1.30;;;;;;;;;;5051156;28;41648;-70
2023/12/27 04:06:47;;;;;;;1.75;1.40;;;;;;;;;;5073500;28;41967;-70
2023/12/27 04:09:17;;;;;;;1.92;1.40;;;;;;;;;;5077502;28;41551;-70
2023/12/27 04:11:45;;;;;;;2.65;1.58;;;;;;;;;;5054056;28;39856;-70
2023/12/27 04:14:15;;;;;;;2.72;1.40;;;;;;;;;;5046865;28;41019;-70
2023/12/27 04:16:43;;;;;;;2.72;1.27;;;;;;;;;;5079658;28;41868;-70
2023/12/27 04:19:11;;;;;;;2.30;1.35;;;;;;;;;;5069098;28;42055;-70
2023/12/27 04:21:41;;;;;;;2.97;1.20;;;;;;;;;;5035827;28;40655;-70
2023/12/27 04:24:09;;;;;;;1.98;1.30;;;;;;;;;;5068936;28;42062;-70
2023/12/27 04:26:39;;;;;;;2.28;1.52;;;;;;;;;;5069550;28;43012;-70
2023/12/27 04:29:07;;;;;;;2.17;1.60;;;;;;;;;;5063610;28;40308;-71
2023/12/27 04:31:36;;;;;;;1.20;1.10;;;;;;;;;;5078311;28;42241;-70
2023/12/27 04:34:04;;;;;;;1.63;1.33;;;;;;;;;;5054999;28;40754;-71
2023/12/27 04:36:35;;;;;;;2.13;1.45;;;;;;;;;;5049685;28;41614;-71
2023/12/27 04:39:04;;;;;;;2.75;1.48;;;;;;;;;;5064115;28;40384;-70
2023/12/27 04:41:32;;;;;;;1.98;1.25;;;;;;;;;;5047255;28;40500;-70
2023/12/27 04:44:02;;;;;;;2.00;1.17;;;;;;;;;;5049355;28;40515;-70
2023/12/27 04:46:30;;;;;;;1.45;1.30;;;;;;;;;;5083304;28;41644;-70
2023/12/27 04:48:58;;;;;;;2.90;1.50;;;;;;;;;;5079952;28;42531;-70
2023/12/27 04:51:26;;;;;;;3.28;1.95;;;;;;;;;;5070008;28;41369;-70
2023/12/27 04:53:56;;;;;;;2.65;1.30;;;;;;;;;;5050864;28;39838;-70
2023/12/27 04:56:24;;;;;;;2.75;1.83;;;;;;;;;;5068050;28;41967;-70
2023/12/27 04:58:52;;;;;;;2.70;1.83;;;;;;;;;;5050387;28;40311;-70
2023/12/27 05:01:21;;;;;;;2.42;1.50;;;;;;;;;;5068706;28;43357;-70
2023/12/27 05:03:50;;;;;;;3.15;1.77;;;;;;;;;;5060903;28;40571;-70
2023/12/27 05:06:18;;;;;;;2.08;1.42;;;;;;;;;;5050998;28;40897;-70
2023/12/27 05:08:47;;;;;;;1.63;1.38;;;;;;;;;;5063452;28;41753;-70
2023/12/27 05:11:16;;;;;;;1.90;1.33;;;;;;;;;;5036705;28;39525;-70
2023/12/27 05:13:44;;;;;;;3.58;1.55;;;;;;;;;;5054675;28;42698;-71
2023/12/27 05:16:13;;;;;;;3.10;1.38;;;;;;;;;;5068772;28;42649;-70
2023/12/27 05:18:42;;;;;;;2.55;1.50;;;;;;;;;;5081263;28;41296;-70
2023/12/27 05:21:11;;;;;;;2.60;1.65;;;;;;;;;;5068159;28;41516;-71
2023/12/27 05:23:39;;;;;;;2.65;1.48;;;;;;;;;;5071089;28;43077;-71
2023/12/27 05:26:06;;;;;;;3.22;1.70;;;;;;;;;;5066537;28;41946;-70
2023/12/27 05:28:34;;;;;;;2.55;1.52;;;;;;;;;;5068519;28;41216;-70
2023/12/27 05:31:02;;;;;;;2.88;1.70;;;;;;;;;;5066579;28;42108;-70
2023/12/27 05:33:31;;;;;;;2.10;1.38;;;;;;;;;;5068917;28;42002;-71
2023/12/27 05:36:01;;;;;;;3.17;1.75;;;;;;;;;;5066767;28;42337;-70
2023/12/27 05:38:29;;;;;;;2.53;1.63;;;;;;;;;;5063697;28;41880;-70
2023/12/27 05:40:57;;;;;;;2.67;1.90;;;;;;;;;;5067902;28;42462;-70
2023/12/27 05:43:25;;;;;;;2.53;1.80;;;;;;;;;;5068535;28;43704;-70
2023/12/27 05:45:53;;;;;;;3.40;1.67;;;;;;;;;;5062302;28;39619;-70
2023/12/27 05:48:21;;;;;;;3.30;2.00;;;;;;;;;;5061349;28;42729;-70
2023/12/27 05:50:49;;;;;;;3.75;1.95;;;;;;;;;;5088324;28;41915;-71
2023/12/27 05:53:18;;;;;;;4.00;1.70;;;;;;;;;;5073368;28;41835;-71
2023/12/27 05:55:46;;;;;;;1.70;1.60;;;;;;;;;;5071696;28;41701;-70
2023/12/27 05:58:14;;;;;;;2.42;1.60;;;;;;;;;;5085793;28;41099;-70
2023/12/27 06:00:42;;;;;;;3.35;1.75;;;;;;;;;;5088017;28;42261;-70
2023/12/27 06:03:10;;;;;;;3.67;1.98;;;;;;;;;;5068433;28;41965;-70
2023/12/27 06:05:40;;;;;;;3.72;1.85;;;;;;;;;;5078229;28;41205;-73
2023/12/27 06:08:08;;;;;;;3.17;1.95;;;;;;;;;;5060611;28;42234;-73
2023/12/27 06:10:39;;;;;;;3.83;2.05;;;;;;;;;;5057573;28;42082;-72
2023/12/27 06:13:07;;;;;;;3.17;2.08;;;;;;;;;;5057780;28;41174;-74
2023/12/27 06:15:35;;;;;;;4.00;2.08;;;;;;;;;;5049500;28;40077;-73
2023/12/27 06:18:03;;;;;;;5.07;2.10;;;;;;;;;;5067580;28;41253;-73
2023/12/27 06:20:32;;;;;;;3.22;2.17;;;;;;;;;;5066778;28;41812;-73
2023/12/27 06:23:00;;;;;;;2.40;1.70;;;;;;;;;;5059907;28;41681;-72
2023/12/27 06:25:27;;;;;;;4.07;2.05;;;;;;;;;;5063082;28;41972;-73
2023/12/27 06:27:57;;;;;;;4.80;2.70;;;;;;;;;;5073487;28;41085;-73
2023/12/27 06:30:25;;;;;;;4.88;2.10;;;;;;;;;;5074188;28;41803;-73
2023/12/27 06:32:54;;;;;;;5.32;2.30;;;;;;;;;;5078935;28;41370;-72
2023/12/27 06:35:22;;;;;;;3.63;1.95;;;;;;;;;;5070126;28;41125;-73
2023/12/27 06:37:50;;;;;;;3.38;2.00;;;;;;;;;;5069148;28;32964;-73
2023/12/27 06:40:18;;;;;;;3.85;1.92;;;;;;;;;;5077704;28;41873;-74
2023/12/27 06:42:46;;;;;;;4.07;2.15;;;;;;;;;;5072123;28;41486;-73
2023/12/27 06:45:15;;;;;;;4.07;2.13;;;;;;;;;;5079039;28;41177;-72
2023/12/27 06:47:43;;;;;;;3.97;2.05;;;;;;;;;;5082616;28;41138;-73
2023/12/27 06:50:11;;;;;;;3.65;2.00;;;;;;;;;;5079123;28;42854;-73
2023/12/27 06:52:39;;;;;;;4.90;2.30;;;;;;;;;;5067117;28;40866;-72
2023/12/27 06:55:07;;;;;;;5.55;2.28;;;;;;;;;;5073605;28;41516;-73
2023/12/27 06:57:35;;;;;;;4.70;2.60;;;;;;;;;;5074993;28;41972;-73
2023/12/27 07:00:04;;;;;;;4.80;2.22;;;;;;;;;;5081736;28;41514;-73
2023/12/27 07:02:34;;;;;;;5.15;2.55;;;;;;;;;;5065966;28;42824;-73
2023/12/27 07:05:02;;;;;;;3.55;2.03;;;;;;;;;;5066075;28;41114;-72
2023/12/27 07:07:30;;;;;;;4.38;2.20;;;;;;;;;;5049209;28;40878;-74
2023/12/27 07:09:58;;;;;;;4.65;2.35;;;;;;;;;;5051302;28;41981;-73
2023/12/27 07:12:26;;;;;;;4.40;2.25;;;;;;;;;;5066761;28;41411;-73
2023/12/27 07:14:54;;;;;;;4.70;2.40;;;;;;;;;;5066217;28;42749;-72
2023/12/27 07:17:22;;;;;;;3.40;1.80;;;;;;;;;;5066076;28;41922;-72
2023/12/27 07:19:52;;;;;;;4.07;2.22;;;;;;;;;;5052487;28;41726;-71
2023/12/27 07:22:19;;;;;;;2.95;1.88;;;;;;;;;;5066899;28;41602;-71
2023/12/27 07:24:48;;;;;;;6.82;2.47;;;;;;;;;;5073743;28;42399;-72
2023/12/27 07:27:16;;;;;;;3.45;2.05;;;;;;;;;;5069096;28;41726;-72
2023/12/27 07:29:44;;;;;;;4.00;2.05;;;;;;;;;;5069250;28;42027;-72
2023/12/27 07:32:12;;;;;;;3.78;1.92;;;;;;;;;;5071287;28;41254;-72
2023/12/27 07:34:41;;;;;;;4.78;2.33;;;;;;;;;;5072844;28;41748;-72
2023/12/27 07:37:10;;;;;;;3.25;1.98;;;;;;;;;;5067718;28;42033;-72
2023/12/27 07:39:38;;;;;;;3.58;1.90;;;;;;;;;;5069464;28;41213;-72
2023/12/27 07:42:07;;;;;;;3.90;2.15;;;;;;;;;;5066939;28;41641;-71
2023/12/27 07:44:35;;;;;;;4.65;2.17;;;;;;;;;;5067313;28;41234;-71
2023/12/27 07:47:04;;;;;;;5.57;2.33;;;;;;;;;;5070985;28;42246;-72
2023/12/27 07:49:32;;;;;;;4.97;2.08;;;;;;;;;;5071176;28;41463;-71
2023/12/27 07:52:00;;;;;;;4.43;2.20;;;;;;;;;;5071758;28;41974;-72
2023/12/27 07:54:31;;;;;;;4.28;2.10;;;;;;;;;;5071734;28;42431;-72
2023/12/27 07:56:59;;;;;;;4.35;1.83;;;;;;;;;;5069523;28;41882;-72
2023/12/27 07:59:27;;;;;;;4.80;2.47;;;;;;;;;;5039655;28;40557;-72
2023/12/27 08:01:55;;;;;;;4.93;2.17;;;;;;;;;;5066277;28;42146;-73
2023/12/27 08:04:23;;;;;;;4.55;2.17;;;;;;;;;;5068809;28;42130;-71
2023/12/27 08:06:52;;;;;;;2.35;1.90;;;;;;;;;;5071800;28;42339;-72
2023/12/27 08:09:22;;;;;;;5.63;2.30;;;;;;;;;;5071957;28;42143;-71
2023/12/27 08:11:51;;;;;;;5.07;2.08;;;;;;;;;;5072761;28;40808;-71
2023/12/27 08:14:19;;;;;;;3.47;2.05;;;;;;;;;;5072019;28;42680;-71
2023/12/27 08:16:51;;;;;;;4.72;2.75;;;;;;;;;;5072334;28;42597;-73
2023/12/27 08:19:20;;;;;;;11.30;3.45;;;;;;;;;;5069177;28;40893;-73
2023/12/27 08:21:48;;;;;;;11.15;3.35;;;;;;;;;;5062751;28;40897;-74
2023/12/27 08:24:16;;;;;;;7.63;2.92;;;;;;;;;;5069731;28;41775;-74
2023/12/27 08:26:44;;;;;;;11.52;3.65;;;;;;;;;;5072359;28;41450;-74
2023/12/27 08:29:13;;;;;;;8.88;3.17;;;;;;;;;;5067494;28;42205;-74
2023/12/27 08:31:41;;;;;;;6.20;3.05;;;;;;;;;;5070020;28;41317;-74
2023/12/27 08:34:09;;;;;;;6.03;3.05;;;;;;;;;;5061507;28;41451;-74
2023/12/27 08:36:37;;;;;;;7.65;2.70;;;;;;;;;;5060642;28;42427;-73
2023/12/27 08:39:05;;;;;;;8.65;2.97;;;;;;;;;;5063281;28;42045;-74
2023/12/27 08:41:34;;;;;;;7.20;3.05;;;;;;;;;;5068495;28;42335;-75
2023/12/27 08:44:02;;;;;;;6.63;3.10;;;;;;;;;;5064353;28;40535;-74
2023/12/27 08:46:32;;;;;;;8.35;3.20;;;;;;;;;;5062402;28;42379;-73
2023/12/27 08:49:00;;;;;;;6.22;2.97;;;;;;;;;;5053685;28;42133;-74
2023/12/27 08:51:29;;;;;;;9.93;2.95;;;;;;;;;;5055534;28;40874;-74
2023/12/27 08:53:58;;;;;;;7.53;2.75;;;;;;;;;;5064044;28;41592;-75
2023/12/27 08:56:26;;;;;;;5.22;2.25;;;;;;;;;;5060846;28;41914;-76
2023/12/27 08:58:54;;;;;;;8.23;2.83;;;;;;;;;;5068320;28;41123;-76
2023/12/27 09:01:22;;;;;;;8.93;2.85;;;;;;;;;;5068407;28;41428;-76
2023/12/27 09:03:51;;;;;;;5.55;2.50;;;;;;;;;;5060239;28;41722;-77
2023/12/27 09:06:19;;;;;;;6.47;2.53;;;;;;;;;;5063933;28;41350;-77
2023/12/27 09:08:49;;;;;;;7.25;2.35;;;;;;;;;;5055365;28;41767;-74
2023/12/27 09:11:18;;;;;;;8.70;2.63;;;;;;;;;;5068709;28;41366;-75
2023/12/27 09:14:06;;;;;;;4.00;2.25;;;;;;;;;;5064174;28;42590;-75
2023/12/27 09:16:34;;;;;;;8.65;2.35;;;;;;;;;;5067991;28;41986;-75
2023/12/27 09:19:04;;;;;;;5.75;2.25;;;;;;;;;;5055949;28;41131;-77
2023/12/27 09:21:33;;;;;;;7.72;2.42;;;;;;;;;;5056974;28;41277;-73
2023/12/27 09:24:01;;;;;;;7.22;2.30;;;;;;;;;;5066146;28;42649;-73
2023/12/27 09:26:29;;;;;;;10.38;2.42;;;;;;;;;;5068603;28;41248;-75
2023/12/27 09:28:57;;;;;;;6.57;2.67;;;;;;;;;;5065691;28;42172;-79
2023/12/27 09:31:30;;;;;;;6.75;2.58;;;;;;;;;;5066392;28;41468;-78
2023/12/27 09:33:59;;;;;;;10.52;2.63;;;;;;;;;;5054442;28;42416;-78
2023/12/27 09:36:29;;;;;;;5.55;2.28;;;;;;;;;;5068300;28;42540;-78
2023/12/27 09:38:57;;;;;;;9.15;2.42;;;;;;;;;;5065595;28;41668;-79
2023/12/27 09:41:25;;;;;;;4.35;2.08;;;;;;;;;;5065749;28;42468;-78
2023/12/27 09:43:53;;;;;;;5.32;2.38;;;;;;;;;;5068483;28;42350;-79
2023/12/27 09:46:21;;;;;;;7.45;2.67;;;;;;;;;;5055343;28;41903;-79
2023/12/27 09:48:50;;;;;;;5.40;2.13;;;;;;;;;;5068186;28;41401;-80
2023/12/27 09:51:23;;;;;;;10.07;3.05;;;;;;;;;;5066064;28;43263;-77
2023/12/27 09:53:52;;;;;;;5.53;2.33;;;;;;;;;;5064221;28;42915;-79
2023/12/27 09:56:20;;;;;;;7.72;2.50;;;;;;;;;;5057511;28;43643;-78
2023/12/27 09:58:48;;;;;;;6.60;2.50;;;;;;;;;;5053974;28;41981;-75
2023/12/27 10:01:16;;;;;;;14.77;2.35;;;;;;;;;;5066154;28;41975;-79
2023/12/27 10:03:44;;;;;;;7.03;2.50;;;;;;;;;;5067843;28;41983;-77
2023/12/27 10:06:15;;;;;;;9.07;2.38;;;;;;;;;;5067229;28;41832;-76
2023/12/27 10:08:43;;;;;;;9.45;2.42;;;;;;;;;;5074039;28;41702;-77
2023/12/27 10:11:12;;;;;;;7.78;2.40;;;;;;;;;;5074185;28;42840;-81
2023/12/27 10:13:41;;;;;;;9.95;2.40;;;;;;;;;;5064404;28;41482;-83
2023/12/27 10:16:09;;;;;;;8.43;2.28;;;;;;;;;;5067824;28;41921;-80
2023/12/27 10:18:37;;;;;;;10.45;2.40;;;;;;;;;;5061222;28;41257;-79
2023/12/27 10:21:08;;;;;;;6.88;2.72;;;;;;;;;;5066900;28;41297;-79
2023/12/27 10:23:36;;;;;;;5.82;2.40;;;;;;;;;;5061550;28;41681;-80
2023/12/27 10:26:07;;;;;;;9.18;2.70;;;;;;;;;;5066251;28;41081;-80
2023/12/27 10:28:37;;;;;;;5.57;2.63;;;;;;;;;;5066678;28;42664;-79
2023/12/27 10:31:06;;;;;;;8.20;2.60;;;;;;;;;;5054419;28;42150;-80
2023/12/27 10:33:40;;;;;;;4.80;2.40;;;;;;;;;;5063477;28;41829;-78
2023/12/27 10:36:08;;;;;;;7.75;2.45;;;;;;;;;;5055768;28;41238;-78
2023/12/27 10:38:36;;;;;;;9.50;2.63;;;;;;;;;;5068090;28;44001;-78
2023/12/27 10:41:05;;;;;;;5.18;2.22;;;;;;;;;;5067094;28;43218;-79
2023/12/27 10:43:33;;;;;;;12.10;2.58;;;;;;;;;;5068282;28;42669;-78
2023/12/27 10:46:03;;;;;;;4.05;2.15;;;;;;;;;;5061690;28;42095;-77
2023/12/27 10:48:31;;;;;;;12.02;2.38;;;;;;;;;;5057510;28;42666;-78
2023/12/27 10:50:59;;;;;;;7.28;3.03;;;;;;;;;;5066096;28;42440;-78
2023/12/27 10:53:28;;;;;;;8.10;2.53;;;;;;;;;;5055138;28;40986;-80
2023/12/27 10:55:56;;;;;;;12.30;2.50;;;;;;;;;;5055331;28;41710;-81
2023/12/27 10:58:24;;;;;;;12.32;3.00;;;;;;;;;;5065870;28;43205;-79
2023/12/27 11:00:52;;;;;;;11.07;3.00;;;;;;;;;;5066619;28;42421;-80
2023/12/27 11:03:22;;;;;;;8.23;2.88;;;;;;;;;;5066395;28;41951;-81
2023/12/27 11:05:50;;;;;;;12.23;2.70;;;;;;;;;;5066464;28;40942;-80
2023/12/27 11:08:19;;;;;;;8.82;2.35;;;;;;;;;;5065943;28;42424;-84
2023/12/27 11:10:47;;;;;;;9.88;2.38;;;;;;;;;;5064142;28;41560;-84
2023/12/27 11:13:15;;;;;;;8.55;2.80;;;;;;;;;;5065394;28;40652;-83
2023/12/27 11:15:44;;;;;;;12.63;3.00;;;;;;;;;;5045924;28;40479;-75
2023/12/27 11:18:12;;;;;;;18.38;3.40;;;;;;;;;;5065457;28;41652;-76
2023/12/27 11:20:42;;;;;;;8.43;2.67;;;;;;;;;;5066810;28;42260;-73
2023/12/27 11:23:10;;;;;;;7.30;2.30;;;;;;;;;;5066231;28;43788;-73
2023/12/27 11:25:38;;;;;;;14.40;3.13;;;;;;;;;;5064313;28;41857;-73
2023/12/27 11:28:08;;;;;;;14.68;2.95;;;;;;;;;;5053659;28;41123;-73
2023/12/27 11:30:36;;;;;;;9.60;2.95;;;;;;;;;;5059758;28;42785;-73
2023/12/27 11:33:04;;;;;;;7.20;2.50;;;;;;;;;;5053752;28;40973;-71
2023/12/27 11:35:33;;;;;;;7.50;2.72;;;;;;;;;;5067343;28;42401;-71
2023/12/27 11:38:15;;;;;;;9.98;2.63;;;;;;;;;;5059298;28;41586;-72
2023/12/27 11:40:44;;;;;;;8.18;2.53;;;;;;;;;;5058290;28;42403;-73
2023/12/27 11:43:16;;;;;;;9.48;3.08;;;;;;;;;;5055778;28;41929;-72
2023/12/27 11:45:57;;;;;;;5.75;2.33;;;;;;;;;;5061769;28;42395;-72
2023/12/27 11:48:27;;;;;;;4.22;2.40;;;;;;;;;;5056875;28;41669;-71
2023/12/27 11:50:56;;;;;;;3.25;1.65;;;;;;;;;;5064079;28;42650;-72
2023/12/27 11:53:27;;;;;;;10.32;2.42;;;;;;;;;;5060444;28;41054;-71
2023/12/27 11:55:55;;;;;;;7.68;2.90;;;;;;;;;;5062550;28;42191;-72
2023/12/27 11:58:33;;;;;;;12.38;2.33;;;;;;;;;;5062684;28;42203;-74
2023/12/27 12:01:19;;;;;;;10.23;2.25;;;;;;;;;;5065089;28;42083;-72
2023/12/27 12:03:47;;;;;;;7.00;2.38;;;;;;;;;;5042730;28;41401;-73
2023/12/27 12:06:18;;;;;;;12.13;2.38;;;;;;;;;;5061405;28;42009;-74
2023/12/27 12:08:48;;;;;;;7.43;2.55;;;;;;;;;;5057926;28;41895;-72
2023/12/27 12:11:17;;;;;;;13.05;2.30;;;;;;;;;;5063294;28;43725;-72
2023/12/27 12:13:45;;;;;;;10.35;1.83;;;;;;;;;;5056533;28;42296;-73
2023/12/27 12:16:13;;;;;;;6.72;2.03;;;;;;;;;;5060491;28;41776;-72
2023/12/27 12:18:41;;;;;;;5.30;1.90;;;;;;;;;;5063606;28;41773;-75
2023/12/27 12:21:10;;;;;;;8.52;2.10;;;;;;;;;;5057636;28;42178;-72
2023/12/27 12:23:38;;;;;;;8.27;2.13;;;;;;;;;;5060042;28;41733;-72
2023/12/27 12:26:07;;;;;;;5.47;1.77;;;;;;;;;;5068717;28;41622;-72
2023/12/27 12:28:35;;;;;;;12.02;2.22;;;;;;;;;;5061947;28;41129;-72
2023/12/27 12:31:03;;;;;;;17.20;2.83;;;;;;;;;;5069041;28;43352;-72
2023/12/27 12:33:31;;;;;;;9.90;2.13;;;;;;;;;;5057402;28;41139;-72
2023/12/27 12:35:59;;;;;;;8.38;2.00;;;;;;;;;;5067444;28;41550;-73
2023/12/27 12:38:28;;;;;;;8.88;2.10;;;;;;;;;;5058811;28;42534;-73
2023/12/27 12:40:56;;;;;;;13.48;2.22;;;;;;;;;;5063363;28;41765;-72
2023/12/27 12:43:26;;;;;;;8.52;2.40;;;;;;;;;;5058613;28;41308;-73
2023/12/27 12:45:56;;;;;;;15.98;2.10;;;;;;;;;;5068891;28;42865;-73
2023/12/27 12:48:25;;;;;;;11.15;2.83;;;;;;;;;;5067696;28;40886;-73
2023/12/27 12:51:08;;;;;;;17.17;3.05;;;;;;;;;;5068941;28;42604;-72
2023/12/27 12:53:37;;;;;;;15.00;2.75;;;;;;;;;;5057157;28;42335;-71
2023/12/27 12:56:06;;;;;;;11.65;2.58;;;;;;;;;;5064360;28;41655;-72
2023/12/27 12:58:36;;;;;;;19.33;4.00;;;;;;;;;;5052445;28;42127;-70
2023/12/27 13:01:04;;;;;;;13.18;3.03;;;;;;;;;;5031509;28;39758;-71
2023/12/27 13:03:37;;;;;;;23.38;3.72;;;;;;;;;;5058400;28;42608;-71
2023/12/27 13:06:07;;;;;;;28.38;3.83;;;;;;;;;;5067938;28;43124;-71
2023/12/27 13:08:36;;;;;;;18.08;2.67;;;;;;;;;;5062805;28;41068;-70
2023/12/27 13:11:04;;;;;;;13.93;2.83;;;;;;;;;;5061637;28;43012;-70
2023/12/27 13:13:32;;;;;;;21.27;3.22;;;;;;;;;;5065644;28;41091;-70
2023/12/27 13:16:01;;;;;;;13.20;2.92;;;;;;;;;;5067206;28;41852;-70
2023/12/27 13:18:30;;;;;;;20.42;2.83;;;;;;;;;;5067966;28;42089;-70
2023/12/27 13:20:58;;;;;;;11.38;2.70;;;;;;;;;;5058377;28;41943;-70
2023/12/27 13:23:26;;;;;;;14.38;3.45;;;;;;;;;;5053167;28;41816;-70
2023/12/27 13:25:54;;;;;;;15.05;2.95;;;;;;;;;;5071602;28;42857;-70
2023/12/27 13:28:25;;;;;;;16.65;2.97;;;;;;;;;;5077984;28;42341;-70
2023/12/27 13:30:53;;;;;;;10.93;2.70;;;;;;;;;;5066926;28;42383;-69
2023/12/27 13:33:24;;;;;;;11.30;2.30;;;;;;;;;;5067829;28;43131;-71
2023/12/27 13:35:53;;;;;;;17.50;3.08;;;;;;;;;;5079484;28;42146;-70
2023/12/27 13:38:21;;;;;;;13.38;2.50;;;;;;;;;;5067256;28;42514;-70
2023/12/27 13:40:49;;;;;;;17.02;2.83;;;;;;;;;;5067852;28;41321;-70
2023/12/27 13:43:17;;;;;;;13.20;3.03;;;;;;;;;;5074555;28;41323;-70
2023/12/27 13:45:45;;;;;;;13.02;2.20;;;;;;;;;;5069826;28;41780;-70
2023/12/27 13:48:13;;;;;;;12.35;2.17;;;;;;;;;;5067646;28;41131;-71
2023/12/27 13:50:44;;;;;;;12.50;2.85;;;;;;;;;;5060539;28;42743;-70
2023/12/27 13:53:12;;;;;;;12.25;2.40;;;;;;;;;;5067451;28;41472;-71
2023/12/27 13:55:40;;;;;;;10.73;2.58;;;;;;;;;;5067898;28;41246;-71
2023/12/27 13:58:08;;;;;;;8.20;2.45;;;;;;;;;;5065287;28;41973;-71
2023/12/27 14:00:36;;;;;;;10.20;2.42;;;;;;;;;;5040195;28;40596;-71
2023/12/27 14:03:04;;;;;;;9.50;2.38;;;;;;;;;;5054526;28;41891;-71
2023/12/27 14:05:33;;;;;;;7.68;2.20;;;;;;;;;;5055603;28;41746;-70
2023/12/27 14:08:02;;;;;;;16.38;3.45;;;;;;;;;;5066815;28;41201;-69
2023/12/27 14:10:30;;;;;;;20.20;2.83;;;;;;;;;;5064870;28;42622;-70
2023/12/27 14:12:58;;;;;;;7.78;1.98;;;;;;;;;;5066458;28;42062;-70
2023/12/27 14:15:26;;;;;;;12.48;2.80;;;;;;;;;;5067360;28;41829;-70
2023/12/27 14:17:54;;;;;;;9.38;2.28;;;;;;;;;;5080032;28;42838;-69
2023/12/27 14:20:23;;;;;;;9.48;2.08;;;;;;;;;;5066397;28;41095;-68
2023/12/27 14:22:51;;;;;;;9.48;2.60;;;;;;;;;;5064617;28;42573;-68
2023/12/27 14:25:20;;;;;;;5.28;2.38;;;;;;;;;;5063538;28;42839;-70
2023/12/27 14:27:48;;;;;;;11.70;2.20;;;;;;;;;;5067322;28;41471;-68
2023/12/27 14:30:16;;;;;;;15.73;2.20;;;;;;;;;;5057983;28;42776;-68
2023/12/27 14:32:44;;;;;;;10.07;1.83;;;;;;;;;;5062047;28;42157;-71
2023/12/27 14:35:12;;;;;;;8.25;1.90;;;;;;;;;;5063161;28;41954;-70
2023/12/27 14:37:40;;;;;;;4.32;1.65;;;;;;;;;;5067127;28;42721;-70
2023/12/27 14:40:10;;;;;;;3.88;1.67;;;;;;;;;;5065919;28;42108;-70
2023/12/27 14:42:42;;;;;;;9.27;2.08;;;;;;;;;;5066940;28;41740;-70
2023/12/27 14:45:10;;;;;;;7.68;1.90;;;;;;;;;;5063907;28;42030;-70
2023/12/27 14:47:38;;;;;;;11.75;1.88;;;;;;;;;;5064764;28;42249;-70
2023/12/27 14:50:07;;;;;;;4.72;1.55;;;;;;;;;;5053336;28;42638;-70